Información del aeropuerto LEIB

Información de pista
Pista 06 Longitud 9186 ft Anchura 148 ft
Elevación 13 ft Umbral 0 ft Rumbo 62
Pista 24 Longitud 9186 ft Anchura 148 ft
Elevación 16 ft Umbral 0 ft Rumbo 242
Frecuencias del aeropuerto
Tipo APP Nombre PALMA APP Frecuencia 118.125 MHZ
Tipo APP Nombre APP Frecuencia 119.8 MHZ
Tipo ATIS Nombre ATIS Frecuencia 117.8 MHZ
Tipo GND Nombre GND Frecuencia 121.8 MHZ
Tipo TWR Nombre TWR Frecuencia 118.5 MHZ
Radioayudas del aeropuerto
Tipo VOR-DME Nombre Ibiza Frecuencia 117800 KHZ
Tipo NDB Nombre Ibiza Frecuencia 394 KHZ
Información meteorológica del aeropuerto y NOTAM
ADDS - METARS form results

(0349 UTC 05 March 2021)
Data provider http://aviationweather.gov/metar/data/
 
METAR text: LEIB 050330Z AUTO 04003KT 9999 FEW017/// 13/11 Q1017
Conditions at: LEIB (IBIZA/ES CODOLA , ES) observed 0330 UTC 05 March 2021
Temperature: 13.0°C (55°F)
Dewpoint: 11.0°C (52°F) [RH = 88%]
Pressure (altimeter): 30.03 inches Hg (1017.0 mb)
Winds: from the NE (40 degrees) at 3 MPH (3 knots; 1.5 m/s)
Visibility: 6 or more miles (10+ km)
Ceiling: at least 12,000 feet AGL
Clouds: few clouds at 1700 feet AGL
Weather: no significant weather observed at this time

METAR text: LEIB 050300Z AUTO 02004KT 9999 FEW017/// 13/11 Q1017
Conditions at: LEIB (IBIZA/ES CODOLA , ES) observed 0300 UTC 05 March 2021
Temperature: 13.0°C (55°F)
Dewpoint: 11.0°C (52°F) [RH = 88%]
Pressure (altimeter): 30.03 inches Hg (1017.0 mb)
Winds: from the NNE (20 degrees) at 5 MPH (4 knots; 2.1 m/s)
Visibility: 6 or more miles (10+ km)
Ceiling: at least 12,000 feet AGL
Clouds: few clouds at 1700 feet AGL
Weather: no significant weather observed at this time

Forecast for: LEIB (IBIZA/ES CODOLA , ES)
Text: TAF LEIB 050200Z 0503/0603 02005KT 9999 FEW015 TX16/0512Z TN10/0506Z
Forecast period: 0300 UTC 05 March 2021 to 0300 UTC 06 March 2021
Forecast type: FROM: standard forecast or significant change
Winds: from the NNE (20 degrees) at 6 MPH (5 knots; 2.6 m/s)
Visibility: 6 or more miles (10+ km)
Ceiling: at least 12,000 feet AGL
Clouds: few clouds at 1500 feet AGL
Weather: no significant weather forecast for this period
Text: TEMPO 0510/0514 09010KT
Forecast period: 1000 to 1400 UTC 05 March 2021
Forecast type: TEMPORARY: The following changes expected for less than half the time period
Winds: from the E (90 degrees) at 12 MPH (10 knots; 5.1 m/s)
Visibility: missing
Ceiling: unknown
Clouds: missing
Weather: no significant weather forecast for this period
Text: PROB30
Forecast period: 0300 to 0800 UTC 05 March 2021
Forecast type: TEMPORARY: The following changes expected for less than half the time period
Visibility: 1.86 miles (2.99 km)
Ceiling: at least 12,000 feet AGL
Clouds: few clouds at 1500 feet AGL
Weather: SHRA  (rain showers)